Time;durP1;ratioP1;P1;durP2;ratioP2;P2;SDS_P1;SDS_P2;PMS_P1;PMS_P2;Temp;Humidity;BMP_temperature;BMP_pressure;BME280_temperature;BME280_humidity;BME280_pressure;Samples;Min_cycle;Max_cycle;Signal;HPM_P1;HPM_P2
2021/09/14 00:00:54;;;;;;;11.60;10.50;;;12.60;1.00;;;;;;5056599;28;20557;-53
2021/09/14 00:03:21;;;;;;;11.53;10.43;;;12.60;1.00;;;;;;5056841;28;20516;-55
2021/09/14 00:05:48;;;;;;;10.07;9.27;;;12.60;99.90;;;;;;5056768;28;20484;-52
2021/09/14 00:08:15;;;;;;;13.30;11.20;;;12.60;99.90;;;;;;5056668;28;20527;-53
2021/09/14 00:10:42;;;;;;;11.23;10.03;;;12.60;24.40;;;;;;5056651;28;20490;-52
2021/09/14 00:13:11;;;;;;;12.97;11.77;;;12.60;61.30;;;;;;5056690;28;20505;-57
2021/09/14 00:15:38;;;;;;;11.10;10.10;;;12.60;82.60;;;;;;5056610;28;20816;-56
2021/09/14 00:18:05;;;;;;;11.73;10.70;;;12.50;1.00;;;;;;5056703;28;20458;-54
2021/09/14 00:20:32;;;;;;;10.80;9.77;;;12.50;1.00;;;;;;5056463;28;20512;-57
2021/09/14 00:23:02;;;;;;;11.97;9.80;;;12.40;69.50;;;;;;5060306;28;20489;-54
2021/09/14 00:25:29;;;;;;;12.80;11.50;;;12.40;99.90;;;;;;5060349;28;21015;-57
2021/09/14 00:27:56;;;;;;;11.43;9.20;;;12.40;99.90;;;;;;5060148;28;20515;-49
2021/09/14 00:30:25;;;;;;;11.43;10.23;;;12.50;63.80;;;;;;5059901;28;20476;-55
2021/09/14 00:32:52;;;;;;;13.80;9.90;;;12.40;1.00;;;;;;5060279;28;20472;-57
2021/09/14 00:35:19;;;;;;;11.67;10.47;;;12.40;1.00;;;;;;5060519;28;20532;-49
2021/09/14 00:37:46;;;;;;;11.03;9.93;;;12.40;1.00;;;;;;5060298;28;20926;-50
2021/09/14 00:40:13;;;;;;;10.60;9.60;;;12.40;1.00;;;;;;5059744;28;20469;-56
2021/09/14 00:42:40;;;;;;;12.70;10.73;;;12.30;9.60;;;;;;5059729;28;20461;-53
2021/09/14 00:45:10;;;;;;;12.83;10.70;;;12.40;64.30;;;;;;5060405;28;20502;-53
2021/09/14 00:47:38;;;;;;;11.60;10.40;;;12.30;1.00;;;;;;5060134;28;20504;-50
2021/09/14 00:50:09;;;;;;;11.57;10.37;;;12.30;99.90;;;;;;5059883;28;20520;-50
2021/09/14 00:52:36;;;;;;;12.13;10.77;;;12.20;99.90;;;;;;5060085;28;20876;-56
2021/09/14 00:55:06;;;;;;;11.10;9.90;;;12.20;99.90;;;;;;5060310;28;20685;-57
2021/09/14 00:57:34;;;;;;;12.27;9.80;;;12.30;99.90;;;;;;5060137;28;20497;-53
2021/09/14 01:00:01;;;;;;;10.37;9.47;;;12.20;99.90;;;;;;5059352;28;20513;-57
2021/09/14 01:02:28;;;;;;;11.10;10.20;;;12.20;99.90;;;;;;5059665;28;20473;-55
2021/09/14 01:04:57;;;;;;;11.60;10.60;;;12.20;99.90;;;;;;5059450;28;20516;-57
2021/09/14 01:07:24;;;;;;;12.77;11.47;;;12.20;99.90;;;;;;5060124;28;20462;-55
2021/09/14 01:09:55;;;;;;;13.53;12.13;;;12.20;99.90;;;;;;5054996;28;20562;-57
2021/09/14 01:12:22;;;;;;;13.03;11.77;;;12.10;99.90;;;;;;5039673;28;20815;-57
2021/09/14 01:15:01;;;;;;;11.90;10.80;;;12.10;99.90;;;;;;5039652;28;20495;-57
2021/09/14 01:17:31;;;;;;;12.30;11.20;;;12.00;99.90;;;;;;5039743;28;20537;-53
2021/09/14 01:19:59;;;;;;;13.17;11.87;;;12.00;99.90;;;;;;5039010;28;20510;-54
2021/09/14 01:22:28;;;;;;;11.57;10.47;;;12.00;99.90;;;;;;5039049;28;20498;-51
2021/09/14 01:24:56;;;;;;;15.27;12.10;;;12.00;99.90;;;;;;5039377;28;20466;-56
2021/09/14 01:27:22;;;;;;;11.83;10.73;;;12.00;99.90;;;;;;5039308;28;20459;-57
2021/09/14 01:32:36;;;;;;;11.57;10.57;;;12.00;99.90;;;;;;5038647;28;20434;-57
2021/09/14 01:35:08;;;;;;;12.57;11.47;;;12.00;99.90;;;;;;5039292;28;20506;-56
2021/09/14 01:37:36;;;;;;;12.43;11.23;;;11.90;99.90;;;;;;5039445;28;20541;-54
2021/09/14 01:40:04;;;;;;;12.30;11.17;;;11.90;99.90;;;;;;5039229;28;20498;-57
2021/09/14 01:42:33;;;;;;;12.40;11.07;;;11.90;99.90;;;;;;5038710;28;20510;-54
2021/09/14 01:45:02;;;;;;;12.60;10.30;;;11.90;99.90;;;;;;5038673;28;20487;-56
2021/09/14 01:47:31;;;;;;;12.50;11.30;;;12.00;99.90;;;;;;5039004;28;20509;-50
2021/09/14 01:49:58;;;;;;;12.70;11.30;;;12.00;99.90;;;;;;5053251;28;20462;-53
2021/09/14 01:52:27;;;;;;;13.03;11.67;;;12.00;99.90;;;;;;5058452;28;20821;-53
2021/09/14 01:54:56;;;;;;;13.77;12.40;;;12.00;99.90;;;;;;5058648;28;20462;-53
2021/09/14 01:57:26;;;;;;;13.73;12.43;;;11.90;99.90;;;;;;5059123;28;20795;-54
2021/09/14 01:59:55;;;;;;;12.67;11.47;;;11.80;99.90;;;;;;5059331;28;20474;-56
2021/09/14 02:02:31;;;;;;;12.30;11.17;;;11.80;99.90;;;;;;5058885;28;20863;-60
2021/09/14 02:05:01;;;;;;;11.40;10.20;;;11.80;99.90;;;;;;5058214;28;20544;-60
2021/09/14 02:07:48;;;;;;;11.47;10.33;;;11.80;99.90;;;;;;5058708;28;20469;-56
2021/09/14 02:59:48;;;;;;;13.07;11.87;;;11.60;99.90;;;;;;5057424;28;20759;-56
2021/09/14 03:02:15;;;;;;;14.83;13.33;;;11.60;99.90;;;;;;5057311;28;20561;-55
2021/09/14 03:04:42;;;;;;;13.67;12.37;;;11.60;99.90;;;;;;5057508;28;20489;-54
2021/09/14 03:07:09;;;;;;;12.70;11.50;;;11.50;99.90;;;;;;5057394;28;20812;-57
2021/09/14 03:09:36;;;;;;;13.07;11.77;;;11.50;99.90;;;;;;5057242;28;20458;-55
2021/09/14 03:12:05;;;;;;;12.40;11.20;;;11.50;99.90;;;;;;5056710;28;20509;-57
2021/09/14 03:14:32;;;;;;;13.07;11.73;;;11.50;99.90;;;;;;5057274;28;20476;-58
2021/09/14 03:17:00;;;;;;;12.70;11.40;;;11.40;99.90;;;;;;5057064;28;20555;-57
2021/09/14 03:19:27;;;;;;;13.17;11.97;;;11.50;99.90;;;;;;5056387;28;20956;-57
2021/09/14 03:21:54;;;;;;;12.43;11.20;;;11.50;99.90;;;;;;5057518;28;20556;-57
2021/09/14 03:24:21;;;;;;;12.70;11.50;;;11.50;99.90;;;;;;5056947;28;20485;-57
2021/09/14 03:26:52;;;;;;;13.93;12.47;;;11.40;99.90;;;;;;5057383;28;20500;-58
2021/09/14 03:29:20;;;;;;;13.33;12.13;;;11.40;99.90;;;;;;5057200;28;20560;-54
2021/09/14 03:31:47;;;;;;;13.73;12.43;;;11.40;99.90;;;;;;5057400;28;20758;-57
2021/09/14 03:34:15;;;;;;;14.23;13.00;;;11.40;99.90;;;;;;5056979;28;20513;-55
2021/09/14 03:36:44;;;;;;;15.07;13.70;;;11.40;99.90;;;;;;5055507;28;20590;-56
2021/09/14 03:39:11;;;;;;;16.10;13.03;;;11.40;99.90;;;;;;5056876;28;20461;-56
2021/09/14 03:41:38;;;;;;;14.63;13.23;;;11.30;99.90;;;;;;5057023;28;20504;-56
2021/09/14 03:44:05;;;;;;;12.97;11.90;;;11.40;99.90;;;;;;5056817;28;20896;-57
2021/09/14 03:46:32;;;;;;;13.73;12.33;;;11.40;99.90;;;;;;5056559;28;20490;-57
2021/09/14 03:49:00;;;;;;;12.50;11.50;;;11.30;99.90;;;;;;5057136;28;20437;-56
2021/09/14 03:51:31;;;;;;;13.80;12.50;;;11.30;99.90;;;;;;5057433;28;20462;-55
2021/09/14 03:53:58;;;;;;;13.87;12.40;;;11.30;99.90;;;;;;5056871;28;20436;-57
2021/09/14 03:56:25;;;;;;;14.27;12.97;;;11.30;99.90;;;;;;5058220;28;20493;-57
2021/09/14 03:58:52;;;;;;;17.20;13.33;;;11.30;99.90;;;;;;5060802;28;20432;-58
2021/09/14 04:01:19;;;;;;;14.07;12.87;;;11.20;99.90;;;;;;5061260;28;20462;-58
2021/09/14 04:03:55;;;;;;;13.83;12.57;;;11.20;99.90;;;;;;5060184;28;20505;-58
2021/09/14 04:06:35;;;;;;;14.27;12.90;;;11.20;99.90;;;;;;5060802;28;20507;-58
2021/09/14 04:09:04;;;;;;;16.20;13.03;;;11.20;99.90;;;;;;5060751;28;20476;-58
2021/09/14 04:11:31;;;;;;;13.93;12.60;;;11.20;99.90;;;;;;5060581;28;20502;-58
2021/09/14 04:13:58;;;;;;;14.20;13.00;;;11.20;99.90;;;;;;5060141;28;20472;-58
2021/09/14 04:16:25;;;;;;;18.43;11.83;;;11.20;99.90;;;;;;5060697;28;20580;-58
2021/09/14 04:18:52;;;;;;;13.57;12.33;;;11.10;99.90;;;;;;5060853;28;20498;-57
2021/09/14 04:21:21;;;;;;;13.17;11.97;;;11.10;99.90;;;;;;5060419;28;20458;-57
2021/09/14 04:23:48;;;;;;;13.37;12.00;;;11.10;99.90;;;;;;5060705;28;20466;-57
2021/09/14 04:26:19;;;;;;;13.50;12.07;;;11.10;99.90;;;;;;5060087;28;20952;-58
2021/09/14 04:28:46;;;;;;;13.20;11.33;;;11.10;99.90;;;;;;5060287;28;20552;-58
2021/09/14 04:31:13;;;;;;;13.73;12.40;;;11.10;99.90;;;;;;5060617;28;20469;-58
2021/09/14 04:33:40;;;;;;;13.70;12.30;;;11.10;99.90;;;;;;5059941;28;20909;-57
2021/09/14 04:36:07;;;;;;;14.07;12.90;;;11.10;99.90;;;;;;5060092;28;20506;-58
2021/09/14 04:38:34;;;;;;;14.23;12.20;;;11.00;99.90;;;;;;5060247;28;20520;-57
2021/09/14 04:41:06;;;;;;;15.00;13.47;;;11.00;99.90;;;;;;5060283;28;20504;-59
2021/09/14 04:43:35;;;;;;;14.40;12.90;;;11.00;99.90;;;;;;5060435;28;20468;-57
2021/09/14 04:46:03;;;;;;;14.67;13.27;;;11.00;99.90;;;;;;5059945;28;20908;-59
2021/09/14 04:48:30;;;;;;;14.57;12.77;;;11.00;99.90;;;;;;5059888;28;20528;-58
2021/09/14 04:50:57;;;;;;;13.27;11.87;;;11.00;99.90;;;;;;5060198;28;20523;-59
2021/09/14 04:53:23;;;;;;;14.30;12.90;;;11.00;99.90;;;;;;5060028;28;20498;-59
2021/09/14 04:55:52;;;;;;;15.00;13.60;;;11.00;99.90;;;;;;5060304;28;20551;-59
2021/09/14 04:58:18;;;;;;;13.70;12.30;;;10.90;99.90;;;;;;5059565;28;20957;-59
2021/09/14 05:00:47;;;;;;;16.00;14.50;;;11.00;99.90;;;;;;5059940;28;20932;-59
2021/09/14 05:03:14;;;;;;;14.30;13.00;;;11.10;99.90;;;;;;5059322;28;20512;-59
2021/09/14 05:05:41;;;;;;;14.73;13.27;;;11.10;99.90;;;;;;5059816;28;20759;-59
2021/09/14 05:08:09;;;;;;;16.10;14.23;;;11.10;99.90;;;;;;5058552;28;20785;-58
2021/09/14 05:10:36;;;;;;;14.73;13.20;;;11.10;99.90;;;;;;5059004;28;20462;-59
2021/09/14 05:13:04;;;;;;;15.23;13.83;;;11.00;99.90;;;;;;5059993;28;20489;-59
2021/09/14 05:15:31;;;;;;;14.33;13.07;;;11.00;99.90;;;;;;5059736;28;20561;-59
2021/09/14 05:18:03;;;;;;;14.50;13.07;;;11.00;99.90;;;;;;5058973;28;20529;-59
2021/09/14 05:20:33;;;;;;;15.53;13.23;;;11.00;99.90;;;;;;5058792;28;20500;-59
2021/09/14 05:23:11;;;;;;;16.07;14.47;;;11.00;99.90;;;;;;5055973;28;20449;-59
2021/09/14 05:25:39;;;;;;;15.37;13.90;;;11.00;99.90;;;;;;5055383;28;20498;-59
2021/09/14 05:28:06;;;;;;;16.80;14.40;;;11.10;99.90;;;;;;5055902;28;20497;-59
2021/09/14 05:30:34;;;;;;;15.17;13.57;;;11.20;99.90;;;;;;5058650;28;20605;-59
2021/09/14 05:33:02;;;;;;;15.77;14.17;;;11.20;99.90;;;;;;5058726;28;20458;-59
2021/09/14 05:35:35;;;;;;;17.43;15.20;;;11.30;99.90;;;;;;5059235;28;20500;-59
2021/09/14 05:38:02;;;;;;;16.33;14.63;;;11.30;99.90;;;;;;5057803;28;20529;-59
2021/09/14 05:40:32;;;;;;;14.97;13.20;;;11.40;99.90;;;;;;5058529;28;20498;-59
2021/09/14 05:43:04;;;;;;;16.00;14.40;;;11.40;99.90;;;;;;5058504;28;20476;-59
2021/09/14 05:45:30;;;;;;;14.00;12.70;;;11.50;99.90;;;;;;5058529;28;20904;-59
2021/09/14 05:48:00;;;;;;;16.40;14.50;;;11.60;99.90;;;;;;5055911;28;20462;-59
2021/09/14 05:50:29;;;;;;;17.00;14.73;;;11.60;99.90;;;;;;5057031;28;20472;-59
2021/09/14 05:53:00;;;;;;;18.23;15.20;;;11.80;99.90;;;;;;5055877;28;20846;-60
2021/09/14 05:55:36;;;;;;;14.23;12.80;;;11.80;99.90;;;;;;5058239;28;20466;-59
2021/09/14 05:58:03;;;;;;;16.20;14.70;;;12.00;99.90;;;;;;5056951;28;20600;-60
2021/09/14 06:00:31;;;;;;;16.33;14.73;;;12.20;99.90;;;;;;5056954;28;20553;-60
2021/09/14 06:03:00;;;;;;;15.40;14.00;;;12.30;99.90;;;;;;5058003;28;20521;-59
2021/09/14 06:05:28;;;;;;;14.60;13.30;;;12.50;99.90;;;;;;5057969;28;20432;-59
2021/09/14 06:07:55;;;;;;;15.40;14.00;;;12.70;99.90;;;;;;5057481;28;21047;-60
2021/09/14 06:10:22;;;;;;;16.53;15.00;;;12.90;99.90;;;;;;5057372;28;20494;-59
2021/09/14 06:12:49;;;;;;;15.63;13.70;;;13.10;99.90;;;;;;5057770;28;20498;-59
2021/09/14 06:15:18;;;;;;;14.40;13.03;;;13.30;99.90;;;;;;5057881;28;20953;-60
2021/09/14 06:17:45;;;;;;;14.90;13.50;;;13.40;1.00;;;;;;5058120;28;20474;-59
2021/09/14 06:20:13;;;;;;;14.27;12.83;;;13.60;1.00;;;;;;5057502;28;20458;-59
2021/09/14 06:22:42;;;;;;;15.00;13.60;;;13.80;99.90;;;;;;5056919;28;20466;-59
2021/09/14 06:25:10;;;;;;;14.80;13.27;;;14.00;99.90;;;;;;5058103;28;20861;-59
2021/09/14 06:27:40;;;;;;;17.27;14.07;;;14.20;99.90;;;;;;5058537;28;20456;-59
2021/09/14 06:30:09;;;;;;;14.13;12.73;;;14.50;99.90;;;;;;5057613;28;20470;-59
2021/09/14 06:32:39;;;;;;;17.37;14.03;;;14.60;1.00;;;;;;5058079;28;20517;-59
2021/09/14 06:35:08;;;;;;;16.00;13.63;;;15.00;99.90;;;;;;5057368;28;20501;-59
2021/09/14 06:37:34;;;;;;;15.93;14.33;;;15.10;99.90;;;;;;5057993;28;20948;-59
2021/09/14 06:40:04;;;;;;;16.03;13.87;;;15.10;99.90;;;;;;5057691;28;20929;-58
2021/09/14 06:42:31;;;;;;;18.53;16.60;;;15.30;99.90;;;;;;5058013;28;20905;-58
2021/09/14 06:45:01;;;;;;;17.00;15.30;;;15.40;55.90;;;;;;5057956;28;20470;-57
2021/09/14 06:47:27;;;;;;;20.13;15.30;;;15.50;9.30;;;;;;5058146;28;20473;-58
2021/09/14 06:49:54;;;;;;;17.63;15.67;;;15.70;1.00;;;;;;5057851;28;20567;-58
2021/09/14 06:52:22;;;;;;;18.43;15.80;;;15.80;1.00;;;;;;5057780;28;20520;-56
2021/09/14 06:54:49;;;;;;;18.17;16.00;;;15.70;1.00;;;;;;5057331;28;20565;-58
2021/09/14 06:57:19;;;;;;;17.23;15.43;;;16.00;1.00;;;;;;5057578;28;20596;-56
2021/09/14 06:59:47;;;;;;;19.23;16.13;;;16.10;1.00;;;;;;5057748;28;20552;-57
2021/09/14 07:02:15;;;;;;;19.07;17.27;;;16.40;1.00;;;;;;5056841;28;20505;-54
2021/09/14 07:04:48;;;;;;;19.53;17.73;;;16.60;1.00;;;;;;5057106;28;20908;-58
2021/09/14 07:07:15;;;;;;;16.53;14.97;;;16.70;1.00;;;;;;5057214;28;20458;-58
2021/09/14 07:09:43;;;;;;;17.30;15.53;;;17.00;1.00;;;;;;5057502;28;20454;-58
2021/09/14 07:12:10;;;;;;;20.93;15.70;;;17.10;1.00;;;;;;5056968;28;20804;-57
2021/09/14 07:14:38;;;;;;;16.63;14.90;;;17.20;1.00;;;;;;5056829;28;20588;-58
2021/09/14 07:17:05;;;;;;;17.50;15.70;;;17.30;1.00;;;;;;5056491;28;20490;-58
2021/09/14 07:19:32;;;;;;;16.53;14.90;;;17.30;1.00;;;;;;5057000;28;20557;-57
2021/09/14 07:21:59;;;;;;;17.47;15.67;;;17.50;1.00;;;;;;5055516;28;20469;-58
2021/09/14 07:24:28;;;;;;;16.87;14.80;;;17.60;1.00;;;;;;5052234;28;20556;-55
2021/09/14 07:27:00;;;;;;;17.57;14.60;;;17.60;1.00;;;;;;5056536;28;20501;-54
2021/09/14 07:29:31;;;;;;;19.60;14.53;;;17.80;1.00;;;;;;5057126;28;20561;-58
2021/09/14 07:32:10;;;;;;;17.23;14.17;;;18.00;1.00;;;;;;5055964;28;20519;-55
2021/09/14 07:34:38;;;;;;;15.53;14.13;;;18.30;1.00;;;;;;5056423;28;20553;-58
2021/09/14 07:37:05;;;;;;;15.93;14.43;;;18.60;1.00;;;;;;5056801;28;20904;-56
2021/09/14 07:39:34;;;;;;;17.10;14.80;;;19.00;1.00;;;;;;5057198;28;20948;-58
2021/09/14 07:42:01;;;;;;;15.30;13.60;;;19.20;1.00;;;;;;5054996;28;20513;-57
2021/09/14 07:44:30;;;;;;;16.00;14.40;;;19.40;1.00;;;;;;5056335;28;20836;-58
2021/09/14 07:46:59;;;;;;;16.47;14.67;;;19.60;1.00;;;;;;5043345;28;20938;-57
2021/09/14 07:49:30;;;;;;;16.13;13.20;;;19.70;1.00;;;;;;5047315;28;20433;-54
2021/09/14 07:51:59;;;;;;;15.23;13.90;;;19.90;1.00;;;;;;5055808;28;20458;-56
2021/09/14 07:54:29;;;;;;;17.00;13.50;;;20.10;1.00;;;;;;5056109;28;20555;-57
2021/09/14 07:56:56;;;;;;;14.30;12.90;;;20.20;1.00;;;;;;5056809;28;20535;-57
2021/09/14 07:59:23;;;;;;;14.67;13.27;;;20.40;1.00;;;;;;5056683;28;20544;-55
2021/09/14 08:01:53;;;;;;;14.23;12.57;;;20.70;1.00;;;;;;5057123;28;20486;-56
2021/09/14 08:04:20;;;;;;;13.67;12.37;;;20.90;1.00;;;;;;5055128;28;20528;-56
2021/09/14 08:06:50;;;;;;;15.30;13.80;;;20.90;99.90;;;;;;5055647;28;20470;-55
2021/09/14 08:09:17;;;;;;;14.47;13.13;;;20.80;99.90;;;;;;5055918;28;20918;-53
2021/09/14 08:11:44;;;;;;;16.97;12.77;;;20.90;1.00;;;;;;5036456;28;20470;-50
2021/09/14 08:14:11;;;;;;;16.30;14.60;;;20.90;1.00;;;;;;5036497;28;20502;-51
2021/09/14 08:16:39;;;;;;;17.03;14.43;;;21.10;99.90;;;;;;5036684;28;20761;-55
2021/09/14 08:19:11;;;;;;;18.63;15.10;;;21.20;99.90;;;;;;5036634;28;20553;-57
2021/09/14 08:21:40;;;;;;;16.33;12.83;;;21.40;99.90;;;;;;5037102;28;20540;-54
2021/09/14 08:24:13;;;;;;;15.00;13.50;;;21.50;99.90;;;;;;5036536;28;20783;-49
2021/09/14 08:26:41;;;;;;;13.77;12.23;;;21.60;99.90;;;;;;5036366;28;20534;-56
2021/09/14 08:29:08;;;;;;;12.70;11.30;;;21.80;99.90;;;;;;5036716;28;20518;-56
2021/09/14 08:31:35;;;;;;;12.80;11.60;;;21.90;99.90;;;;;;5036753;28;20497;-56
2021/09/14 08:34:02;;;;;;;15.33;12.23;;;22.00;99.90;;;;;;5036439;28;20497;-48
2021/09/14 08:36:29;;;;;;;12.73;11.40;;;22.10;99.90;;;;;;5036289;28;20758;-52
2021/09/14 08:38:58;;;;;;;12.87;11.60;;;22.50;99.90;;;;;;5036346;28;20531;-51
2021/09/14 08:41:31;;;;;;;13.17;10.40;;;22.90;99.90;;;;;;5036425;28;20470;-53
2021/09/14 08:43:59;;;;;;;12.03;10.77;;;23.40;99.90;;;;;;5039831;28;20459;-54
2021/09/14 08:46:26;;;;;;;11.07;9.67;;;23.40;99.90;;;;;;5039764;28;20811;-54
2021/09/14 08:48:55;;;;;;;11.90;10.70;;;23.60;99.90;;;;;;5046322;28;20462;-56
2021/09/14 08:51:24;;;;;;;11.33;9.13;;;23.80;99.90;;;;;;5060224;28;20928;-56
2021/09/14 08:53:51;;;;;;;7.83;7.20;;;24.00;99.90;;;;;;5059882;28;20498;-52
2021/09/14 08:56:18;;;;;;;8.57;7.80;;;24.20;99.90;;;;;;5059708;28;20509;-54
2021/09/14 08:58:56;;;;;;;7.37;6.67;;;24.60;99.90;;;;;;5059849;28;20834;-50
2021/09/14 09:01:23;;;;;;;7.33;6.67;;;25.00;99.90;;;;;;5060085;28;20464;-54
2021/09/14 09:03:57;;;;;;;8.23;6.40;;;25.40;99.90;;;;;;5060570;28;20466;-57
2021/09/14 09:06:39;;;;;;;8.40;5.77;;;25.60;99.90;;;;;;5059510;28;20777;-54
2021/09/14 09:09:14;;;;;;;6.03;5.43;;;25.90;99.90;;;;;;5059291;28;20459;-57
2021/09/14 09:11:57;;;;;;;6.03;5.40;;;26.30;99.90;;;;;;5039687;28;20443;-54
2021/09/14 09:14:38;;;;;;;6.27;5.67;;;26.30;99.90;;;;;;5039807;28;20804;-54
2021/09/14 09:17:10;;;;;;;6.03;5.53;;;26.60;99.90;;;;;;5039894;28;20510;-53
2021/09/14 09:19:38;;;;;;;6.20;5.70;;;26.50;99.90;;;;;;5039590;28;20497;-53
2021/09/14 09:22:05;;;;;;;5.97;5.57;;;26.60;99.90;;;;;;5039309;28;20956;-55
2021/09/14 09:24:43;;;;;;;6.03;5.53;;;26.80;99.90;;;;;;5038782;28;20467;-55
2021/09/14 09:27:14;;;;;;;5.20;4.70;;;26.90;99.90;;;;;;5039359;28;20481;-53
2021/09/14 09:29:42;;;;;;;5.37;4.97;;;26.90;99.90;;;;;;5039561;28;20490;-50
2021/09/14 09:32:12;;;;;;;4.90;4.60;;;26.90;99.90;;;;;;5038885;28;20558;-51
2021/09/14 09:34:42;;;;;;;5.27;4.87;;;27.10;99.90;;;;;;5039317;28;20830;-53
2021/09/14 09:37:10;;;;;;;6.43;5.93;;;27.10;99.90;;;;;;5039523;28;20459;-52
2021/09/14 09:39:45;;;;;;;5.03;4.63;;;27.40;99.90;;;;;;5038462;28;20530;-51
2021/09/14 09:42:17;;;;;;;5.43;4.90;;;27.30;99.90;;;;;;5038793;28;20474;-53
2021/09/14 09:44:57;;;;;;;5.70;5.30;;;27.40;99.90;;;;;;5052452;28;20462;-54
2021/09/14 09:47:24;;;;;;;5.93;5.43;;;27.30;99.90;;;;;;5058971;28;20904;-50
2021/09/14 09:49:55;;;;;;;4.77;4.40;;;27.20;99.90;;;;;;5059101;28;20493;-50
2021/09/14 09:52:22;;;;;;;5.77;5.20;;;27.40;99.90;;;;;;5058515;28;20985;-53
2021/09/14 09:54:52;;;;;;;5.30;4.90;;;27.50;99.90;;;;;;5058910;28;20917;-50
2021/09/14 09:57:20;;;;;;;5.43;5.03;;;27.70;99.90;;;;;;5058923;28;20458;-52
2021/09/14 09:59:50;;;;;;;4.90;4.50;;;28.00;99.90;;;;;;5056191;28;20536;-55
2021/09/14 10:02:26;;;;;;;5.93;5.50;;;28.30;99.90;;;;;;5057431;28;20497;-53
2021/09/14 10:04:58;;;;;;;5.97;4.93;;;28.50;99.90;;;;;;5057058;28;20462;-52
2021/09/14 10:07:31;;;;;;;5.80;5.30;;;28.50;99.90;;;;;;5058211;28;20462;-50
2021/09/14 10:10:00;;;;;;;4.87;4.47;;;28.70;99.90;;;;;;5056129;28;20454;-52
2021/09/14 10:12:31;;;;;;;5.07;4.77;;;28.60;99.90;;;;;;5057822;28;20490;-50
2021/09/14 10:15:04;;;;;;;4.50;4.13;;;28.30;99.90;;;;;;5057738;28;20908;-51
2021/09/14 10:17:45;;;;;;;5.63;5.17;;;28.50;99.90;;;;;;5058403;28;20471;-55
2021/09/14 10:20:14;;;;;;;5.30;4.90;;;28.70;99.90;;;;;;5057807;28;20511;-51
2021/09/14 10:22:41;;;;;;;5.40;4.90;;;28.70;99.90;;;;;;5058307;28;20523;-49
2021/09/14 10:25:11;;;;;;;4.60;4.30;;;28.40;99.90;;;;;;5057522;28;20676;-51
2021/09/14 10:27:43;;;;;;;5.10;4.80;;;28.70;99.90;;;;;;5058449;28;20493;-49
2021/09/14 10:30:14;;;;;;;5.63;5.10;;;28.70;99.90;;;;;;5057540;28;20466;-51
2021/09/14 10:32:47;;;;;;;5.37;4.97;;;28.90;99.90;;;;;;5057604;28;20764;-49
2021/09/14 10:35:26;;;;;;;5.27;4.90;;;29.00;99.90;;;;;;5058661;28;20498;-47
2021/09/14 10:37:57;;;;;;;5.53;5.00;;;28.90;99.90;;;;;;5040479;28;20466;-51
2021/09/14 10:40:23;;;;;;;5.70;5.20;;;29.30;99.90;;;;;;5057910;28;20457;-50
2021/09/14 10:42:51;;;;;;;6.10;5.37;;;29.10;99.90;;;;;;5057753;28;20917;-55
2021/09/14 10:45:24;;;;;;;6.47;5.33;;;29.20;99.90;;;;;;5058164;28;20549;-45
2021/09/14 10:47:56;;;;;;;5.90;5.40;;;29.20;99.90;;;;;;5057933;28;20768;-55
2021/09/14 10:50:32;;;;;;;5.30;4.90;;;29.20;99.90;;;;;;5057853;28;20504;-47
2021/09/14 10:53:02;;;;;;;4.73;4.43;;;28.40;99.90;;;;;;5057737;28;20496;-46
2021/09/14 10:55:30;;;;;;;5.10;4.70;;;27.70;99.90;;;;;;5057810;28;20504;-48
2021/09/14 10:58:06;;;;;;;4.70;4.40;;;27.50;99.90;;;;;;5056473;28;20470;-45
2021/09/14 11:00:34;;;;;;;6.03;5.47;;;27.50;99.90;;;;;;5057544;28;20457;-49
2021/09/14 11:03:07;;;;;;;4.60;4.20;;;27.70;99.90;;;;;;5057792;28;20462;-45
2021/09/14 11:05:38;;;;;;;5.40;4.50;;;27.70;99.90;;;;;;5057245;28;20458;-50
2021/09/14 11:08:09;;;;;;;4.40;4.10;;;27.60;99.90;;;;;;5057304;28;20458;-50
2021/09/14 11:10:38;;;;;;;5.97;5.37;;;27.70;99.90;;;;;;5056774;28;20909;-54
2021/09/14 11:13:05;;;;;;;5.00;4.60;;;27.60;99.90;;;;;;5055888;28;20512;-51
2021/09/14 11:15:33;;;;;;;6.10;5.50;;;27.80;99.90;;;;;;5057497;28;20525;-51
2021/09/14 11:18:03;;;;;;;5.00;4.60;;;28.10;99.90;;;;;;5056186;28;20508;-49
2021/09/14 11:20:39;;;;;;;5.23;4.83;;;28.10;99.90;;;;;;5056983;28;20494;-46
2021/09/14 11:23:06;;;;;;;4.80;4.40;;;28.40;99.90;;;;;;5057246;28;20461;-49
2021/09/14 11:25:33;;;;;;;4.90;4.60;;;28.70;99.90;;;;;;5056701;28;20944;-47
2021/09/14 11:28:02;;;;;;;5.90;5.30;;;28.70;99.90;;;;;;5056930;28;20497;-47
2021/09/14 11:30:35;;;;;;;4.77;4.47;;;28.80;99.90;;;;;;5057425;28;20466;-51
2021/09/14 11:33:04;;;;;;;4.93;4.53;;;28.30;99.90;;;;;;5057073;28;20469;-48
2021/09/14 11:35:36;;;;;;;7.87;4.80;;;27.90;99.90;;;;;;5057536;28;20485;-48
2021/09/14 11:38:05;;;;;;;6.03;5.43;;;27.90;99.90;;;;;;5057059;28;20439;-52
2021/09/14 11:40:35;;;;;;;5.47;5.07;;;27.90;99.90;;;;;;5057051;28;20504;-48
2021/09/14 11:43:05;;;;;;;5.67;5.17;;;28.00;99.90;;;;;;5057087;28;20506;-48
2021/09/14 11:45:37;;;;;;;5.80;5.30;;;28.60;99.90;;;;;;5057041;28;20463;-50
2021/09/14 11:48:15;;;;;;;5.10;4.70;;;29.00;99.90;;;;;;5057213;28;20819;-47
2021/09/14 11:50:44;;;;;;;6.13;5.73;;;29.00;99.90;;;;;;5037313;28;20498;-46
2021/09/14 11:53:15;;;;;;;5.00;4.60;;;29.50;99.90;;;;;;5036995;28;20474;-51
2021/09/14 11:55:46;;;;;;;4.90;4.50;;;30.10;99.90;;;;;;5037125;28;20501;-48
2021/09/14 11:58:14;;;;;;;4.30;4.00;;;30.20;99.90;;;;;;5037173;28;20463;-46
2021/09/14 12:00:43;;;;;;;4.90;4.40;;;30.20;99.90;;;;;;5050503;28;20998;-51
2021/09/14 12:03:10;;;;;;;5.30;5.00;;;30.20;99.90;;;;;;5056489;28;20473;-51
2021/09/14 12:05:39;;;;;;;5.57;5.07;;;30.00;99.90;;;;;;5056930;28;20494;-48
2021/09/14 12:08:28;;;;;;;6.00;5.60;;;30.10;99.90;;;;;;5056631;28;20445;-51
2021/09/14 12:10:56;;;;;;;5.77;5.37;;;29.90;99.90;;;;;;5042517;28;20545;-49
2021/09/14 12:13:25;;;;;;;5.57;5.17;;;30.10;99.90;;;;;;5037202;28;20491;-48
2021/09/14 12:15:58;;;;;;;5.03;4.70;;;30.00;99.90;;;;;;5037018;28;20498;-48
2021/09/14 12:18:25;;;;;;;5.23;4.90;;;30.20;99.90;;;;;;5039050;28;20470;-48
2021/09/14 12:20:53;;;;;;;4.80;4.40;;;30.20;99.90;;;;;;5040217;28;20890;-48
2021/09/14 12:23:21;;;;;;;5.30;4.83;;;30.20;99.90;;;;;;5041067;28;20517;-47
2021/09/14 12:25:50;;;;;;;8.47;4.70;;;30.20;99.90;;;;;;5040166;28;21012;-55
2021/09/14 12:28:19;;;;;;;4.77;4.37;;;30.20;99.90;;;;;;5040422;28;20505;-54
2021/09/14 12:30:46;;;;;;;4.80;4.40;;;30.30;99.90;;;;;;5040437;28;20459;-53
2021/09/14 12:33:16;;;;;;;4.70;4.37;;;30.20;99.90;;;;;;5047935;28;20501;-45
2021/09/14 12:35:52;;;;;;;4.77;3.90;;;30.30;99.90;;;;;;5060432;28;20465;-53
2021/09/14 12:38:21;;;;;;;4.00;3.70;;;30.40;99.90;;;;;;5059937;28;20472;-54
2021/09/14 12:40:50;;;;;;;4.87;4.37;;;29.80;99.90;;;;;;5060128;28;21003;-54
2021/09/14 12:43:16;;;;;;;4.83;4.43;;;29.40;99.90;;;;;;5060111;28;20465;-51
2021/09/14 12:45:45;;;;;;;4.90;4.50;;;28.90;99.90;;;;;;5059705;28;20469;-51
2021/09/14 12:48:18;;;;;;;5.63;5.13;;;28.20;99.90;;;;;;5059826;28;20493;-52
2021/09/14 12:50:45;;;;;;;5.87;4.90;;;28.30;99.90;;;;;;5060037;28;20810;-54
2021/09/14 12:53:12;;;;;;;5.17;4.77;;;28.40;99.90;;;;;;5060151;28;20465;-50
2021/09/14 12:55:39;;;;;;;5.13;4.73;;;28.30;99.90;;;;;;5059106;28;20465;-51
2021/09/14 12:58:08;;;;;;;5.13;4.83;;;28.20;99.90;;;;;;5059601;28;20504;-48
2021/09/14 13:00:37;;;;;;;4.40;4.00;;;28.00;99.90;;;;;;5059703;28;20525;-51
2021/09/14 13:03:05;;;;;;;4.53;4.23;;;27.80;99.90;;;;;;5060407;28;20466;-50
2021/09/14 13:05:34;;;;;;;4.47;4.17;;;27.90;99.90;;;;;;5056710;28;20915;-52
2021/09/14 13:08:04;;;;;;;4.57;4.00;;;28.00;99.90;;;;;;5059082;28;20462;-48
2021/09/14 13:10:33;;;;;;;4.90;4.50;;;28.10;99.90;;;;;;5058298;28;20510;-52
2021/09/14 13:18:30;;;;;;;4.70;4.30;;;27.30;99.90;;;;;;5058867;28;20457;-52
2021/09/14 13:20:59;;;;;;;4.97;4.43;;;27.10;99.90;;;;;;5058948;28;20990;-51
2021/09/14 13:23:27;;;;;;;5.07;4.60;;;27.10;99.90;;;;;;5059507;28;20841;-53
2021/09/14 13:25:54;;;;;;;6.97;4.87;;;27.20;99.90;;;;;;5058851;28;20494;-51
2021/09/14 13:28:21;;;;;;;4.63;4.23;;;27.20;99.90;;;;;;5059041;28;20497;-53
2021/09/14 13:30:49;;;;;;;5.43;4.97;;;27.20;99.90;;;;;;5058552;28;20493;-55
2021/09/14 13:33:19;;;;;;;4.83;4.43;;;27.10;99.90;;;;;;5058027;28;20502;-56
2021/09/14 13:35:49;;;;;;;4.70;4.40;;;27.00;99.90;;;;;;5062816;28;20466;-51
2021/09/14 13:38:22;;;;;;;5.27;4.87;;;26.80;99.90;;;;;;5057645;28;20465;-48
2021/09/14 13:40:51;;;;;;;4.87;4.40;;;26.70;99.90;;;;;;5058073;28;20490;-56
2021/09/14 13:43:33;;;;;;;4.63;4.23;;;26.70;99.90;;;;;;5057641;28;20828;-50